createdAt,value
2023-05-06T00:05:31.004Z,77.01
2023-05-06T00:15:32.236Z,81.13
2023-05-06T00:25:32.462Z,84.41
2023-05-06T00:35:32.972Z,84.85
2023-05-06T00:45:33.700Z,86.32
2023-05-06T00:55:34.351Z,88.00
2023-05-06T01:05:34.999Z,89.37
2023-05-06T01:15:35.507Z,90.54
2023-05-06T01:25:36.084Z,89.25
2023-05-06T01:35:36.613Z,90.26
2023-05-06T01:45:37.269Z,90.77
2023-05-06T01:55:37.770Z,91.74
2023-05-06T02:05:38.379Z,92.46
2023-05-06T02:15:38.889Z,92.66
2023-05-06T02:25:39.556Z,92.60
2023-05-06T02:35:40.082Z,91.78
2023-05-06T02:45:40.769Z,92.95
2023-05-06T02:55:41.274Z,92.23
2023-05-06T03:05:41.876Z,92.38
2023-05-06T03:15:42.321Z,93.71
2023-05-06T03:25:43.102Z,92.93
2023-05-06T03:35:43.558Z,92.63
2023-05-06T03:45:44.281Z,92.93
2023-05-06T03:55:44.745Z,91.55
2023-05-06T04:05:45.254Z,94.48
2023-05-06T04:15:45.731Z,93.86
2023-05-06T04:25:46.250Z,92.77
2023-05-06T04:35:46.749Z,93.49
2023-05-06T04:45:47.381Z,92.93
2023-05-06T04:55:47.859Z,91.80
2023-05-06T05:05:55.469Z,92.11
2023-05-06T05:15:48.891Z,90.94
2023-05-06T05:25:49.480Z,91.39
2023-05-06T05:35:49.924Z,90.69
2023-05-06T05:45:50.584Z,89.87
2023-05-06T05:55:51.026Z,90.32
2023-05-06T06:05:51.634Z,90.42
2023-05-06T06:15:52.180Z,90.12
2023-05-06T06:25:52.678Z,90.42
2023-05-06T06:35:53.186Z,89.81
2023-05-06T06:45:53.892Z,89.70
2023-05-06T06:55:54.347Z,90.16
2023-05-06T07:05:54.948Z,90.98
2023-05-06T07:15:55.384Z,90.53
2023-05-06T07:25:55.987Z,91.97
2023-05-06T07:35:56.435Z,92.93
2023-05-06T07:45:57.047Z,93.35
2023-05-06T07:55:57.525Z,93.10
2023-05-06T08:05:58.117Z,94.78
2023-05-06T08:15:58.613Z,95.46
2023-05-06T08:25:59.168Z,95.92
2023-05-06T08:35:59.597Z,97.56
2023-05-06T08:46:00.385Z,96.23
2023-05-06T08:56:00.848Z,96.90
2023-05-06T09:06:01.481Z,97.67
2023-05-06T09:16:01.927Z,97.42
2023-05-06T09:26:02.589Z,95.43
2023-05-06T09:36:03.024Z,95.23
2023-05-06T09:46:03.768Z,94.46
2023-05-06T09:56:04.242Z,93.64
2023-05-06T10:06:04.824Z,92.61
2023-05-06T10:16:05.297Z,91.49
2023-05-06T10:26:05.915Z,92.21
2023-05-06T10:36:06.350Z,91.08
2023-05-06T10:46:07.116Z,92.04
2023-05-06T10:56:07.609Z,92.50
2023-05-06T11:06:15.294Z,91.22
2023-05-06T11:16:08.730Z,91.63
2023-05-06T11:26:09.323Z,91.12
2023-05-06T11:36:09.797Z,91.27
2023-05-06T11:46:10.517Z,91.88
2023-05-06T11:56:11.282Z,91.99
2023-05-06T12:06:11.871Z,91.67
2023-05-06T12:16:12.359Z,91.61
2023-05-06T12:26:13.210Z,91.41
2023-05-06T12:36:13.726Z,89.11
2023-05-06T12:46:14.282Z,87.73
2023-05-06T12:56:14.733Z,89.27
2023-05-06T13:06:15.314Z,90.55
2023-05-06T13:16:16.076Z,89.64
2023-05-06T13:26:16.682Z,88.00
2023-05-06T13:36:17.121Z,88.86
2023-05-06T13:46:17.802Z,87.49
2023-05-06T13:56:18.388Z,86.63
2023-05-06T14:06:18.931Z,87.70
2023-05-06T14:16:19.467Z,87.55
2023-05-06T14:26:20.131Z,86.93
2023-05-06T14:36:20.564Z,87.38
2023-05-06T14:46:21.215Z,88.66
2023-05-06T14:56:21.795Z,88.59
2023-05-06T15:06:22.394Z,87.84
2023-05-06T15:16:22.988Z,88.59
2023-05-06T15:26:23.557Z,89.62
2023-05-06T15:36:24.061Z,89.76
2023-05-06T15:46:24.656Z,89.72
2023-05-06T15:56:26.922Z,89.01
2023-05-06T16:06:26.262Z,86.98
2023-05-06T16:16:26.770Z,87.67
2023-05-06T16:26:27.318Z,88.04
2023-05-06T16:36:27.871Z,87.08
2023-05-06T16:46:28.492Z,87.73
2023-05-06T16:56:43.863Z,87.73
2023-05-06T17:17:21.452Z,88.80
2023-05-06T17:27:19.764Z,88.66
2023-05-06T17:37:20.379Z,87.94
2023-05-06T17:47:20.841Z,88.70
2023-05-06T17:57:21.396Z,89.25
2023-05-06T18:07:21.832Z,89.31
2023-05-06T18:17:22.496Z,90.14
2023-05-06T18:27:23.000Z,89.93
2023-05-06T18:37:23.522Z,91.10
2023-05-06T18:47:24.043Z,90.59
2023-05-06T18:57:24.558Z,91.20
2023-05-06T19:07:25.042Z,91.00
2023-05-06T19:17:25.634Z,91.93
2023-05-06T19:27:26.131Z,91.61
2023-05-06T19:37:26.784Z,91.72
2023-05-06T19:47:27.312Z,91.93
2023-05-06T19:57:27.853Z,92.95
2023-05-06T20:07:28.403Z,93.92
2023-05-06T20:17:29.080Z,94.84
2023-05-06T20:27:29.587Z,95.36
2023-05-06T20:37:30.168Z,96.90
2023-05-06T20:47:30.723Z,96.69
2023-05-06T20:57:31.299Z,97.36
2023-05-06T21:07:31.831Z,96.90
2023-05-06T21:17:32.566Z,97.20
2023-05-06T21:27:33.126Z,97.31
2023-05-06T21:37:33.785Z,97.72
2023-05-06T21:47:34.308Z,97.52
2023-05-06T21:57:34.930Z,97.66
2023-05-06T22:07:35.435Z,97.20
2023-05-06T22:17:36.124Z,96.08
2023-05-06T22:27:36.632Z,95.36
2023-05-06T22:37:37.193Z,95.01
2023-05-06T22:47:37.740Z,96.34
2023-05-06T22:57:38.442Z,95.10
2023-05-06T23:07:47.011Z,95.01
2023-05-06T23:17:39.699Z,94.80
2023-05-06T23:27:40.195Z,93.98
2023-05-06T23:37:40.846Z,94.59
2023-05-06T23:47:41.390Z,94.29
2023-05-06T23:57:42.019Z,93.36
